createdAt,value
2023-03-26T00:02:01.904Z,99630.25
2023-03-26T00:05:05.365Z,99593.56
2023-03-26T00:08:11.463Z,99617.88
2023-03-26T00:11:16.068Z,99618.34
2023-03-26T00:14:18.794Z,99612.44
2023-03-26T00:17:21.566Z,99581.31
2023-03-26T00:20:24.340Z,99603.84
2023-03-26T00:23:28.431Z,99605.28
2023-03-26T00:26:32.067Z,99576.91
2023-03-26T00:29:36.100Z,99596.53
2023-03-26T00:32:38.899Z,99578.16
2023-03-26T00:35:43.305Z,99602.16
2023-03-26T00:38:48.010Z,99608.06
2023-03-26T00:41:54.553Z,99580.56
2023-03-26T00:45:00.642Z,99552.63
2023-03-26T00:48:04.257Z,99599.31
2023-03-26T00:51:08.848Z,99617.00
2023-03-26T00:54:11.968Z,99579.38
2023-03-26T00:57:22.602Z,99612.06
2023-03-26T01:00:36.517Z,99611.88
2023-03-26T01:03:39.641Z,99597.91
2023-03-26T01:06:43.420Z,99576.50
2023-03-26T01:09:50.487Z,99604.69
2023-03-26T01:12:53.127Z,99551.72
2023-03-26T01:15:57.926Z,99585.50
2023-03-26T01:19:01.036Z,99601.28
2023-03-26T01:22:05.367Z,99583.09
2023-03-26T01:25:09.664Z,99577.78
2023-03-26T01:28:12.997Z,99614.47
2023-03-26T01:31:29.900Z,99578.72
2023-03-26T01:34:54.282Z,99599.00
2023-03-26T01:38:11.908Z,99599.97
2023-03-26T01:41:24.552Z,99575.63
2023-03-26T01:44:41.600Z,99605.00
2023-03-26T01:47:45.733Z,99582.09
2023-03-26T01:50:51.387Z,99573.09
2023-03-26T01:53:55.414Z,99608.50
2023-03-26T01:57:35.423Z,99616.56
2023-03-26T02:00:45.970Z,99585.78
2023-03-26T02:03:59.131Z,99582.31
2023-03-26T02:07:18.045Z,99572.31
2023-03-26T02:10:27.016Z,99572.63
2023-03-26T02:13:30.399Z,99584.47
2023-03-26T02:16:33.346Z,99619.19
2023-03-26T02:19:37.475Z,99625.59
2023-03-26T02:22:41.827Z,99607.09
2023-03-26T02:25:46.506Z,99600.28
2023-03-26T02:28:49.574Z,99562.81
2023-03-26T02:31:52.297Z,99590.03
2023-03-26T02:34:54.912Z,99618.78
2023-03-26T02:37:57.506Z,99601.59
2023-03-26T02:41:01.253Z,99633.38
2023-03-26T02:44:13.525Z,99633.97
2023-03-26T02:47:39.321Z,99633.31
2023-03-26T02:51:06.793Z,99605.78
2023-03-26T02:54:28.192Z,99631.75
2023-03-26T02:57:38.290Z,99625.16
2023-03-26T03:00:56.761Z,99634.59
2023-03-26T03:04:08.418Z,99636.59
2023-03-26T03:07:14.572Z,99619.59
2023-03-26T03:10:21.940Z,99650.22
2023-03-26T03:13:47.941Z,99652.06
2023-03-26T03:16:57.947Z,99654.63
2023-03-26T03:20:01.058Z,99629.31
2023-03-26T03:23:04.062Z,99637.88
2023-03-26T03:26:14.396Z,99642.38
2023-03-26T03:29:18.842Z,99652.72
2023-03-26T03:32:23.027Z,99652.06
2023-03-26T03:35:30.179Z,99666.63
2023-03-26T03:38:35.019Z,99635.03
2023-03-26T03:41:37.633Z,99666.28
2023-03-26T03:44:43.072Z,99628.78
2023-03-26T03:47:59.083Z,99662.16
2023-03-26T03:51:21.075Z,99627.00
2023-03-26T03:54:34.643Z,99651.47
2023-03-26T03:57:54.867Z,99637.66
2023-03-26T04:01:01.048Z,99641.78
2023-03-26T04:04:35.754Z,99622.09
2023-03-26T04:07:40.059Z,99638.53
2023-03-26T04:10:44.136Z,99614.56
2023-03-26T04:13:52.398Z,99628.88
2023-03-26T04:17:02.357Z,99643.44
2023-03-26T04:20:08.864Z,99590.94
2023-03-26T04:23:14.266Z,99653.66
2023-03-26T04:26:20.525Z,99657.16
2023-03-26T04:29:45.790Z,99665.06
2023-03-26T04:32:54.233Z,99665.13
2023-03-26T04:36:01.712Z,99673.25
2023-03-26T04:39:07.059Z,99652.56
2023-03-26T04:42:48.055Z,99680.31
2023-03-26T04:46:03.366Z,99688.94
2023-03-26T04:49:10.304Z,99662.75
2023-03-26T04:52:14.597Z,99660.75
2023-03-26T04:55:53.567Z,99696.25
2023-03-26T04:59:19.531Z,99698.38
2023-03-26T05:02:22.165Z,99685.66
2023-03-26T05:05:31.350Z,99695.06
2023-03-26T05:08:35.385Z,99678.75
2023-03-26T05:11:38.293Z,99680.19
2023-03-26T05:14:41.302Z,99667.63
2023-03-26T05:17:51.445Z,99666.66
2023-03-26T05:21:03.234Z,99661.13
2023-03-26T05:24:07.769Z,99657.00
2023-03-26T05:27:17.164Z,99676.53
2023-03-26T05:30:22.443Z,99675.34
2023-03-26T05:33:30.429Z,99689.63
2023-03-26T05:36:40.870Z,99677.31
2023-03-26T05:40:04.344Z,99698.47
2023-03-26T05:43:33.802Z,99694.16
2023-03-26T05:46:42.858Z,99694.41
2023-03-26T05:49:49.440Z,99680.53
2023-03-26T05:52:52.545Z,99712.06
2023-03-26T05:56:13.476Z,99694.25
2023-03-26T05:59:35.387Z,99718.06
2023-03-26T06:02:57.411Z,99693.59
2023-03-26T06:06:20.888Z,99681.88
2023-03-26T06:09:31.956Z,99715.56
2023-03-26T06:12:35.019Z,99701.88
2023-03-26T06:15:37.887Z,99709.66
2023-03-26T06:19:03.682Z,99736.41
2023-03-26T06:22:22.902Z,99728.25
2023-03-26T06:25:51.916Z,99733.31
2023-03-26T06:29:12.478Z,99716.88
2023-03-26T06:32:28.191Z,99710.59
2023-03-26T06:35:40.069Z,99728.31
2023-03-26T06:38:42.894Z,99703.16
2023-03-26T06:41:46.521Z,99711.31
2023-03-26T06:44:59.472Z,99730.84
2023-03-26T06:48:11.147Z,99717.16
2023-03-26T06:51:41.265Z,99724.75
2023-03-26T06:54:43.837Z,99705.75
2023-03-26T06:58:02.336Z,99722.38
2023-03-26T07:01:14.137Z,99706.88
2023-03-26T07:04:35.491Z,99730.19
2023-03-26T07:07:56.861Z,99730.69
2023-03-26T07:11:32.295Z,99715.63
2023-03-26T07:14:53.395Z,99722.91
2023-03-26T07:18:18.561Z,99717.16
2023-03-26T07:21:22.775Z,99715.25
2023-03-26T07:24:26.070Z,99719.25
2023-03-26T07:27:59.836Z,99729.94
2023-03-26T07:31:37.278Z,99727.44
2023-03-26T07:35:15.541Z,99702.75
2023-03-26T07:39:08.952Z,99728.53
2023-03-26T07:42:55.975Z,99692.84
2023-03-26T07:46:18.985Z,99703.38
2023-03-26T07:49:30.384Z,99720.47
2023-03-26T07:52:58.355Z,99713.56
2023-03-26T07:56:20.602Z,99693.91
2023-03-26T08:00:12.296Z,99706.59
2023-03-26T08:03:42.390Z,99717.28
2023-03-26T08:06:54.076Z,99701.63
2023-03-26T08:10:23.724Z,99699.88
2023-03-26T08:13:34.749Z,99715.38
2023-03-26T08:16:46.008Z,99698.22
2023-03-26T08:19:49.278Z,99708.09
2023-03-26T08:23:02.249Z,99697.66
2023-03-26T08:26:25.808Z,99693.53
2023-03-26T08:29:41.301Z,99698.75
2023-03-26T08:32:49.962Z,99687.03
2023-03-26T08:35:52.623Z,99681.66
2023-03-26T08:38:57.503Z,99677.31
2023-03-26T08:42:32.038Z,99699.38
2023-03-26T08:46:13.424Z,99670.88
2023-03-26T08:49:48.194Z,99690.25
2023-03-26T08:53:23.296Z,99684.97
2023-03-26T08:57:06.034Z,99685.75
2023-03-26T09:00:52.538Z,99680.09
2023-03-26T09:04:40.150Z,99699.66
2023-03-26T09:08:16.008Z,99695.44
2023-03-26T09:11:56.010Z,99700.44
2023-03-26T09:15:13.618Z,99696.09
2023-03-26T09:18:28.122Z,99702.28
2023-03-26T09:21:48.822Z,99702.38
2023-03-26T09:25:16.331Z,99694.06
2023-03-26T09:28:41.890Z,99701.00
2023-03-26T09:32:09.512Z,99700.44
2023-03-26T09:35:15.537Z,99696.88
2023-03-26T09:38:43.466Z,99676.41
2023-03-26T09:42:22.271Z,99690.00
2023-03-26T09:45:39.930Z,99690.59
2023-03-26T09:48:42.625Z,99689.25
2023-03-26T09:52:34.454Z,99677.84
2023-03-26T09:55:45.412Z,99661.59
2023-03-26T09:59:29.253Z,99675.31
2023-03-26T10:02:48.007Z,99676.72
2023-03-26T10:05:57.582Z,99670.88
2023-03-26T10:09:08.620Z,99660.88
2023-03-26T10:12:35.276Z,99670.00
2023-03-26T10:15:43.624Z,99670.59
2023-03-26T10:18:58.470Z,99663.19
2023-03-26T10:22:17.814Z,99641.50
2023-03-26T10:25:23.489Z,99658.34
2023-03-26T10:28:45.446Z,99657.66
2023-03-26T10:31:57.739Z,99650.78
2023-03-26T10:35:19.088Z,99643.56
2023-03-26T10:39:03.684Z,99632.09
2023-03-26T10:42:40.856Z,99650.72
2023-03-26T10:46:04.963Z,99647.97
2023-03-26T10:49:41.155Z,99641.47
2023-03-26T10:53:03.297Z,99631.63
2023-03-26T10:56:32.639Z,99629.25
2023-03-26T10:59:35.355Z,99610.41
2023-03-26T11:02:44.938Z,99619.75
2023-03-26T11:06:25.600Z,99634.75
2023-03-26T11:09:42.223Z,99615.41
2023-03-26T11:13:23.250Z,99623.88
2023-03-26T11:16:31.011Z,99607.47
2023-03-26T11:19:53.210Z,99618.47
2023-03-26T11:23:01.976Z,99614.84
2023-03-26T11:26:10.312Z,99612.25
2023-03-26T11:29:31.098Z,99604.81
2023-03-26T11:32:43.914Z,99577.53
2023-03-26T11:35:53.216Z,99573.72
2023-03-26T11:38:59.723Z,99602.06
2023-03-26T11:42:11.404Z,99587.72
2023-03-26T11:45:24.288Z,99562.94
2023-03-26T11:48:41.982Z,99584.13
2023-03-26T11:51:47.955Z,99575.72
2023-03-26T11:54:51.102Z,99541.13
2023-03-26T11:57:58.559Z,99546.69
2023-03-26T12:01:05.583Z,99548.22
2023-03-26T12:04:15.863Z,99564.41
2023-03-26T12:07:40.263Z,99539.81
2023-03-26T12:10:43.437Z,99557.91
2023-03-26T12:13:59.647Z,99569.41
2023-03-26T12:17:12.598Z,99556.69
2023-03-26T12:20:24.938Z,99557.78
2023-03-26T12:23:56.483Z,99545.41
2023-03-26T12:27:21.030Z,99541.44
2023-03-26T12:30:33.992Z,99518.97
2023-03-26T12:33:39.023Z,99529.81
2023-03-26T12:36:49.462Z,99536.47
2023-03-26T12:40:12.967Z,99515.88
2023-03-26T12:44:53.907Z,99522.69
2023-03-26T12:47:58.246Z,99502.31
2023-03-26T12:51:13.151Z,99516.56
2023-03-26T12:54:52.943Z,99523.00
2023-03-26T12:58:13.729Z,99516.06
2023-03-26T13:01:26.371Z,99501.59
2023-03-26T13:05:06.501Z,99514.81
2023-03-26T13:08:40.623Z,99507.50
2023-03-26T13:11:58.569Z,99497.59
2023-03-26T13:15:19.564Z,99496.44
2023-03-26T13:18:27.900Z,99492.84
2023-03-26T13:21:39.314Z,99477.56
2023-03-26T13:24:46.415Z,99475.44
2023-03-26T13:28:10.906Z,99464.63
2023-03-26T13:31:23.298Z,99455.81
2023-03-26T13:34:33.574Z,99429.16
2023-03-26T13:37:45.531Z,99431.78
2023-03-26T13:41:03.342Z,99452.31
2023-03-26T13:44:42.422Z,99443.34
2023-03-26T13:47:50.395Z,99421.28
2023-03-26T13:51:14.798Z,99430.38
2023-03-26T13:54:40.547Z,99423.44
2023-03-26T13:57:48.862Z,99412.00
2023-03-26T14:01:17.001Z,99386.69
2023-03-26T14:04:58.492Z,99425.56
2023-03-26T14:08:27.215Z,99404.13
2023-03-26T14:12:22.080Z,99403.28
2023-03-26T14:15:41.345Z,99387.19
2023-03-26T14:18:56.652Z,99374.91
2023-03-26T14:22:26.449Z,99393.13
2023-03-26T14:25:50.797Z,99397.53
2023-03-26T14:29:13.838Z,99379.91
2023-03-26T14:32:50.800Z,99345.56
2023-03-26T14:36:11.952Z,99382.16
2023-03-26T14:39:23.666Z,99368.78
2023-03-26T14:42:48.024Z,99375.91
2023-03-26T14:46:05.685Z,99385.06
2023-03-26T14:49:20.141Z,99384.94
2023-03-26T14:52:39.519Z,99369.16
2023-03-26T14:55:54.172Z,99397.22
2023-03-26T14:59:47.591Z,99382.34
2023-03-26T15:03:11.593Z,99391.50
2023-03-26T15:06:35.052Z,99374.00
2023-03-26T15:10:05.806Z,99368.97
2023-03-26T15:13:30.053Z,99366.22
2023-03-26T15:16:32.875Z,99371.81
2023-03-26T15:20:10.855Z,99377.25
2023-03-26T15:23:33.780Z,99376.25
2023-03-26T15:26:58.799Z,99378.13
2023-03-26T15:30:13.829Z,99361.09
2023-03-26T15:33:50.867Z,99358.13
2023-03-26T15:37:22.519Z,99355.22
2023-03-26T15:40:30.105Z,99354.88
2023-03-26T15:44:23.127Z,99347.53
2023-03-26T15:47:58.230Z,99344.94
2023-03-26T15:51:46.111Z,99348.81
2023-03-26T15:54:56.241Z,99354.56
2023-03-26T15:58:14.268Z,99336.19
2023-03-26T16:01:38.148Z,99331.56
2023-03-26T16:05:19.411Z,99336.63
2023-03-26T16:08:38.699Z,99300.94
2023-03-26T16:12:03.141Z,99332.06
2023-03-26T16:15:06.103Z,99317.50
2023-03-26T16:18:10.423Z,99311.53
2023-03-26T16:21:32.082Z,99307.09
2023-03-26T16:24:40.345Z,99281.31
2023-03-26T16:27:44.638Z,99280.41
2023-03-26T16:31:23.569Z,99311.81
2023-03-26T16:34:47.884Z,99302.28
2023-03-26T16:38:05.867Z,99301.28
2023-03-26T16:41:50.157Z,99305.47
2023-03-26T16:45:21.791Z,99310.38
2023-03-26T16:48:49.667Z,99310.16
2023-03-26T16:52:27.810Z,99290.38
2023-03-26T16:56:08.862Z,99306.97
2023-03-26T16:59:40.042Z,99290.63
2023-03-26T17:03:08.050Z,99310.22
2023-03-26T17:06:47.914Z,99311.53
2023-03-26T17:10:03.489Z,99304.78
2023-03-26T17:13:16.745Z,99278.09
2023-03-26T17:16:23.637Z,99302.03
2023-03-26T17:19:58.297Z,99303.50
2023-03-26T17:23:22.839Z,99317.16
2023-03-26T17:26:31.262Z,99321.00
2023-03-26T17:30:04.049Z,99313.47
2023-03-26T17:33:38.717Z,99316.59
2023-03-26T17:36:43.176Z,99303.72
2023-03-26T17:39:46.966Z,99316.31
2023-03-26T17:43:08.421Z,99296.09
2023-03-26T17:46:25.752Z,99320.84
2023-03-26T17:49:33.377Z,99297.88
2023-03-26T17:52:49.665Z,99304.53
2023-03-26T17:55:53.709Z,99296.63
2023-03-26T17:59:11.250Z,99308.69
2023-03-26T18:02:21.902Z,99290.84
2023-03-26T18:05:28.151Z,99279.16
2023-03-26T18:08:46.448Z,99309.16
2023-03-26T18:12:13.551Z,99302.53
2023-03-26T18:15:54.964Z,99299.69
2023-03-26T18:19:01.674Z,99266.13
2023-03-26T18:22:07.435Z,99261.81
2023-03-26T18:25:22.002Z,99262.69
2023-03-26T18:28:34.923Z,99280.81
2023-03-26T18:31:42.109Z,99257.63
2023-03-26T18:34:53.824Z,99279.44
2023-03-26T18:38:00.996Z,99256.00
2023-03-26T18:41:08.066Z,99271.00
2023-03-26T18:44:17.350Z,99264.88
2023-03-26T18:47:21.114Z,99274.56
2023-03-26T18:50:41.329Z,99251.03
2023-03-26T18:53:54.843Z,99246.47
2023-03-26T18:56:58.979Z,99248.56
2023-03-26T19:00:23.632Z,99238.88
2023-03-26T19:03:28.615Z,99247.78
2023-03-26T19:06:38.325Z,99238.53
2023-03-26T19:09:43.369Z,99243.00
2023-03-26T19:12:46.578Z,99240.31
2023-03-26T19:15:52.371Z,99252.38
2023-03-26T19:18:59.161Z,99226.56
2023-03-26T19:22:04.717Z,99241.53
2023-03-26T19:25:17.761Z,99245.25
2023-03-26T19:28:31.174Z,99232.06
2023-03-26T19:31:37.140Z,99212.50
2023-03-26T19:34:40.190Z,99216.25
2023-03-26T19:37:51.380Z,99212.81
2023-03-26T19:40:58.682Z,99176.97
2023-03-26T19:44:12.339Z,99212.31
2023-03-26T19:47:19.928Z,99220.94
2023-03-26T19:50:28.899Z,99209.44
2023-03-26T19:53:37.414Z,99171.13
2023-03-26T19:56:43.696Z,99176.53
2023-03-26T19:59:50.965Z,99159.59
2023-03-26T20:02:54.150Z,99177.66
2023-03-26T20:05:57.535Z,99157.47
2023-03-26T20:09:01.307Z,99180.41
2023-03-26T20:12:04.470Z,99181.19
2023-03-26T20:15:28.829Z,99157.81
2023-03-26T20:18:31.787Z,99139.28
2023-03-26T20:21:41.212Z,99158.25
2023-03-26T20:24:47.271Z,99158.81
2023-03-26T20:27:53.106Z,99146.22
2023-03-26T20:30:57.782Z,99137.53
2023-03-26T20:34:00.897Z,99157.69
2023-03-26T20:37:04.163Z,99158.28
2023-03-26T20:40:08.851Z,99128.38
2023-03-26T20:43:18.529Z,99153.63
2023-03-26T20:46:31.051Z,99141.97
2023-03-26T20:49:35.070Z,99131.84
2023-03-26T20:52:37.849Z,99114.34
2023-03-26T20:55:44.014Z,99130.25
2023-03-26T20:59:03.616Z,99128.09
2023-03-26T21:02:12.070Z,99106.63
2023-03-26T21:05:15.034Z,99102.44
2023-03-26T21:08:19.570Z,99100.78
2023-03-26T21:11:42.443Z,99101.44
2023-03-26T21:14:45.247Z,99093.00
2023-03-26T21:17:49.239Z,99092.88
2023-03-26T21:21:26.895Z,99082.88
2023-03-26T21:24:30.432Z,99079.44
2023-03-26T21:27:33.885Z,99066.66
2023-03-26T21:30:37.644Z,99059.94
2023-03-26T21:33:41.089Z,99058.66
2023-03-26T21:36:43.998Z,99024.88
2023-03-26T21:39:46.947Z,99049.31
2023-03-26T21:42:51.684Z,99016.28
2023-03-26T21:45:54.936Z,99031.84
2023-03-26T21:48:57.941Z,99037.56
2023-03-26T21:52:01.040Z,99016.66
2023-03-26T21:55:05.961Z,99031.38
2023-03-26T21:58:14.368Z,99032.03
2023-03-26T22:01:25.315Z,99009.66
2023-03-26T22:04:41.872Z,99020.25
2023-03-26T22:07:47.186Z,99018.06
2023-03-26T22:10:50.528Z,99008.81
2023-03-26T22:13:53.483Z,98978.47
2023-03-26T22:16:56.058Z,98987.75
2023-03-26T22:19:58.644Z,98991.97
2023-03-26T22:23:01.951Z,98982.53
2023-03-26T22:26:06.020Z,98988.09
2023-03-26T22:29:09.658Z,98989.44
2023-03-26T22:32:12.293Z,98993.31
2023-03-26T22:35:14.901Z,98959.94
2023-03-26T22:38:17.986Z,98961.13
2023-03-26T22:41:21.821Z,98952.72
2023-03-26T22:44:24.468Z,98970.63
2023-03-26T22:47:27.290Z,98941.63
2023-03-26T22:50:30.201Z,98957.16
2023-03-26T22:53:32.864Z,98938.00
2023-03-26T22:56:36.401Z,98933.84
2023-03-26T22:59:39.051Z,98952.66
2023-03-26T23:02:42.335Z,98957.84
2023-03-26T23:05:56.114Z,98961.88
2023-03-26T23:08:59.048Z,98961.56
2023-03-26T23:12:02.208Z,98966.59
2023-03-26T23:15:06.188Z,98940.25
2023-03-26T23:18:08.808Z,98950.38
2023-03-26T23:21:16.387Z,98952.25
2023-03-26T23:24:18.937Z,98947.59
2023-03-26T23:27:22.890Z,98948.25
2023-03-26T23:30:27.787Z,98916.00
2023-03-26T23:33:35.296Z,98932.75
2023-03-26T23:36:37.919Z,98909.56
2023-03-26T23:39:40.530Z,98913.31
2023-03-26T23:42:43.275Z,98911.97
2023-03-26T23:45:49.178Z,98930.50
2023-03-26T23:48:52.253Z,98935.91
2023-03-26T23:51:54.982Z,98905.25
2023-03-26T23:54:59.820Z,98938.28
2023-03-26T23:58:03.462Z,98908.72
